createdAt,value
2019-05-18T00:03:16.593Z,10.30
2019-05-18T00:08:21.396Z,10.20
2019-05-18T00:13:25.991Z,10.20
2019-05-18T00:18:30.820Z,10.10
2019-05-18T00:23:35.371Z,10.00
2019-05-18T00:28:39.886Z,9.80
2019-05-18T00:33:45.344Z,9.70
2019-05-18T00:38:50.477Z,9.60
2019-05-18T00:43:54.971Z,9.40
2019-05-18T00:48:59.579Z,9.20
2019-05-18T00:54:04.117Z,9.10
2019-05-18T00:59:08.816Z,9.10
2019-05-18T01:04:13.349Z,9.00
2019-05-18T01:09:18.394Z,9.00
2019-05-18T01:14:23.458Z,8.90
2019-05-18T01:19:28.233Z,8.90
2019-05-18T01:24:34.064Z,8.90
2019-05-18T01:29:39.946Z,9.00
2019-05-18T01:34:44.944Z,9.10
2019-05-18T01:39:49.584Z,9.00
2019-05-18T01:44:54.779Z,9.00
2019-05-18T01:49:59.664Z,9.00
2019-05-18T01:55:05.045Z,9.00
2019-05-18T02:00:10.143Z,8.90
2019-05-18T02:05:14.624Z,8.70
2019-05-18T02:10:19.681Z,8.50
2019-05-18T02:15:24.884Z,8.40
2019-05-18T02:20:29.537Z,8.50
2019-05-18T02:25:34.535Z,8.60
2019-05-18T02:30:38.876Z,8.60
2019-05-18T02:35:43.520Z,8.50
2019-05-18T02:40:48.371Z,8.30
2019-05-18T02:45:53.170Z,8.20
2019-05-18T02:50:58.165Z,8.00
2019-05-18T02:56:02.598Z,7.90
2019-05-18T03:01:07.403Z,7.70
2019-05-18T03:06:12.152Z,7.60
2019-05-18T03:11:17.257Z,7.60
2019-05-18T03:16:21.937Z,7.60
2019-05-18T03:21:27.016Z,7.50
2019-05-18T03:26:32.051Z,7.40
2019-05-18T03:31:36.457Z,7.30
2019-05-18T03:36:41.762Z,7.20
2019-05-18T03:41:46.236Z,7.10
2019-05-18T03:46:50.645Z,7.10
2019-05-18T03:51:56.730Z,7.00
2019-05-18T03:57:01.926Z,7.10
2019-05-18T04:02:06.393Z,7.10
2019-05-18T04:07:11.355Z,7.20
2019-05-18T04:12:15.833Z,7.30
2019-05-18T04:17:20.804Z,7.50
2019-05-18T04:22:25.296Z,7.70
2019-05-18T04:27:29.817Z,8.00
2019-05-18T04:32:35.750Z,8.30
2019-05-18T04:37:40.468Z,8.70
2019-05-18T04:42:45.688Z,8.90
2019-05-18T04:47:50.785Z,9.20
2019-05-18T04:52:55.328Z,9.50
2019-05-18T04:58:00.247Z,9.70
2019-05-18T05:03:05.959Z,9.90
2019-05-18T05:08:10.509Z,10.10
2019-05-18T05:13:15.243Z,10.30
2019-05-18T05:18:19.808Z,10.50
2019-05-18T05:23:24.594Z,10.60
2019-05-18T05:28:29.690Z,10.80
2019-05-18T05:33:34.529Z,10.80
2019-05-18T05:38:39.320Z,11.00
2019-05-18T05:43:43.974Z,11.40
2019-05-18T05:48:48.824Z,11.60
2019-05-18T05:53:53.788Z,12.20
2019-05-18T05:58:58.555Z,13.70
2019-05-18T06:04:03.462Z,16.00
2019-05-18T06:09:08.598Z,16.50
2019-05-18T06:14:13.351Z,19.90
2019-05-18T06:19:18.228Z,22.20
2019-05-18T06:24:23.250Z,21.00
2019-05-18T06:29:27.766Z,21.80
2019-05-18T06:34:33.724Z,22.90
2019-05-18T06:39:42.331Z,23.80
2019-05-18T06:44:47.240Z,25.10
2019-05-18T06:49:52.087Z,26.20
2019-05-18T06:54:57.078Z,27.40
2019-05-18T07:00:03.210Z,27.20
2019-05-18T07:05:09.184Z,28.20
2019-05-18T07:10:14.352Z,28.80
2019-05-18T07:15:19.540Z,27.30
2019-05-18T07:20:24.789Z,27.60
2019-05-18T07:25:29.396Z,23.70
2019-05-18T07:30:34.176Z,22.20
2019-05-18T07:35:39.088Z,23.10
2019-05-18T07:40:43.746Z,24.40
2019-05-18T07:45:48.610Z,24.10
2019-05-18T07:50:53.471Z,22.00
2019-05-18T07:55:58.099Z,20.70
2019-05-18T08:01:03.226Z,20.00
2019-05-18T08:06:08.159Z,23.30
2019-05-18T08:11:42.934Z,26.10
2019-05-18T08:16:47.572Z,28.30
2019-05-18T08:21:53.709Z,25.80
2019-05-18T08:27:01.816Z,24.00
2019-05-18T08:32:04.713Z,24.40
2019-05-18T08:37:09.826Z,25.20
2019-05-18T08:42:14.271Z,24.80
2019-05-18T08:47:18.976Z,24.40
2019-05-18T08:52:24.150Z,24.70
2019-05-18T08:57:28.853Z,26.80
2019-05-18T09:02:34.066Z,26.10
2019-05-18T09:07:39.394Z,25.90
2019-05-18T09:12:44.402Z,26.80
2019-05-18T09:17:49.465Z,25.70
2019-05-18T09:22:54.445Z,26.80
2019-05-18T09:27:59.332Z,25.50
2019-05-18T09:33:04.037Z,23.80
2019-05-18T09:38:09.127Z,25.30
2019-05-18T09:43:13.736Z,26.00
2019-05-18T09:48:18.895Z,25.60
2019-05-18T09:53:23.203Z,25.30
2019-05-18T09:58:28.032Z,26.20
2019-05-18T10:04:15.832Z,26.60
2019-05-18T10:09:23.416Z,25.90
2019-05-18T10:14:28.373Z,25.30
2019-05-18T10:19:32.958Z,25.40
2019-05-18T10:24:38.195Z,24.60
2019-05-18T10:29:46.531Z,23.80
2019-05-18T10:34:49.966Z,23.90
2019-05-18T10:39:55.439Z,23.60
2019-05-18T10:45:00.702Z,23.80
2019-05-18T10:50:06.421Z,23.50
2019-05-18T10:55:11.829Z,22.80
2019-05-18T11:00:17.555Z,23.10
2019-05-18T11:05:23.494Z,23.20
2019-05-18T11:10:28.069Z,23.10
2019-05-18T11:15:33.287Z,23.40
2019-05-18T11:20:38.515Z,23.50
2019-05-18T11:25:44.487Z,23.20
2019-05-18T11:30:49.204Z,22.90
2019-05-18T11:35:55.443Z,23.20
2019-05-18T11:41:00.308Z,23.80
2019-05-18T11:46:05.290Z,23.70
2019-05-18T11:51:10.087Z,23.90
2019-05-18T11:56:15.269Z,23.60
2019-05-18T12:01:20.990Z,24.30
2019-05-18T12:06:25.493Z,23.90
2019-05-18T12:11:30.377Z,24.10
2019-05-18T12:16:36.874Z,24.30
2019-05-18T12:21:41.634Z,24.70
2019-05-18T12:26:47.126Z,24.80
2019-05-18T12:31:52.140Z,23.70
2019-05-18T12:36:57.354Z,23.50
2019-05-18T12:42:01.855Z,24.70
2019-05-18T12:47:06.764Z,24.40
2019-05-18T12:52:11.837Z,23.80
2019-05-18T12:57:16.967Z,23.50
2019-05-18T13:02:22.035Z,24.10
2019-05-18T13:07:27.040Z,24.30
2019-05-18T13:12:32.072Z,24.10
2019-05-18T13:17:36.956Z,23.70
2019-05-18T13:22:42.390Z,23.60
2019-05-18T13:27:47.163Z,23.50
2019-05-18T13:32:51.861Z,23.50
2019-05-18T13:37:56.908Z,23.70
2019-05-18T13:43:01.910Z,23.30
2019-05-18T13:48:06.482Z,23.50
2019-05-18T13:53:11.373Z,23.40
2019-05-18T13:58:16.572Z,23.10
2019-05-18T14:03:21.296Z,23.10
2019-05-18T14:08:28.458Z,22.60
2019-05-18T14:13:33.766Z,20.90
2019-05-18T14:18:39.861Z,19.80
2019-05-18T14:23:44.779Z,19.20
2019-05-18T14:28:50.300Z,19.20
2019-05-18T14:33:56.612Z,18.50
2019-05-18T14:39:01.282Z,18.50
2019-05-18T14:44:05.898Z,18.30
2019-05-18T14:49:11.508Z,18.10
2019-05-18T14:54:16.496Z,17.80
2019-05-18T14:59:21.302Z,18.10
2019-05-18T15:04:27.317Z,18.00
2019-05-18T15:09:31.935Z,18.10
2019-05-18T15:14:37.287Z,18.10
2019-05-18T15:19:42.935Z,17.90
2019-05-18T15:24:47.998Z,17.80
2019-05-18T15:29:53.852Z,17.80
2019-05-18T15:34:59.729Z,18.00
2019-05-18T15:40:04.836Z,18.20
2019-05-18T15:45:09.949Z,18.40
2019-05-18T15:50:15.390Z,18.30
2019-05-18T15:55:20.506Z,18.50
2019-05-18T16:00:25.146Z,18.70
2019-05-18T16:05:30.071Z,18.90
2019-05-18T16:10:35.432Z,18.70
2019-05-18T16:15:40.029Z,18.80
2019-05-18T16:20:45.099Z,18.80
2019-05-18T16:25:50.708Z,18.90
2019-05-18T16:30:55.733Z,18.90
2019-05-18T16:36:01.640Z,18.70
2019-05-18T16:41:06.908Z,18.70
2019-05-18T16:46:11.691Z,18.70
2019-05-18T16:51:16.430Z,18.40
2019-05-18T16:56:34.311Z,18.30
2019-05-18T17:01:27.597Z,18.10
2019-05-18T17:06:32.386Z,18.10
2019-05-18T17:11:37.200Z,17.90
2019-05-18T17:16:41.857Z,17.80
2019-05-18T17:21:46.585Z,17.70
2019-05-18T17:26:53.282Z,17.50
2019-05-18T17:31:57.886Z,17.40
2019-05-18T17:37:03.566Z,17.00
2019-05-18T17:42:09.081Z,16.80
2019-05-18T17:47:13.890Z,16.60
2019-05-18T17:52:18.600Z,16.50
2019-05-18T17:57:23.698Z,16.30
2019-05-18T18:02:28.402Z,16.20
2019-05-18T18:07:33.326Z,16.10
2019-05-18T18:12:37.846Z,16.00
2019-05-18T18:17:42.367Z,15.90
2019-05-18T18:22:48.107Z,15.70
2019-05-18T18:27:53.351Z,15.60
2019-05-18T18:32:58.692Z,15.40
2019-05-18T18:38:03.430Z,15.30
2019-05-18T18:43:08.060Z,15.10
2019-05-18T18:48:12.643Z,15.00
2019-05-18T18:53:17.687Z,14.90
2019-05-18T18:58:22.740Z,14.80
2019-05-18T19:03:28.824Z,14.70
2019-05-18T19:08:34.261Z,14.60
2019-05-18T19:13:38.834Z,14.60
2019-05-18T19:18:43.428Z,14.50
2019-05-18T19:23:48.281Z,14.30
2019-05-18T19:28:53.378Z,14.10
2019-05-18T19:33:58.899Z,14.00
2019-05-18T19:39:05.127Z,13.90
2019-05-18T19:44:10.038Z,13.80
2019-05-18T19:49:14.722Z,13.70
2019-05-18T19:54:19.893Z,13.50
2019-05-18T19:59:25.706Z,13.40
2019-05-18T20:04:30.750Z,13.30
2019-05-18T20:09:35.411Z,13.20
2019-05-18T20:14:41.163Z,13.20
2019-05-18T20:19:46.093Z,13.30
2019-05-18T20:24:50.962Z,13.20
2019-05-18T20:29:55.958Z,13.10
2019-05-18T20:35:01.168Z,13.00
2019-05-18T20:40:06.756Z,12.90
2019-05-18T20:45:11.879Z,12.80
2019-05-18T20:50:18.035Z,12.80
2019-05-18T20:55:23.184Z,12.60
2019-05-18T21:00:38.267Z,12.60
2019-05-18T21:05:41.986Z,12.70
2019-05-18T21:10:47.080Z,12.80
2019-05-18T21:15:52.774Z,13.00
2019-05-18T21:20:57.774Z,13.10
2019-05-18T21:26:02.357Z,13.10
2019-05-18T21:31:07.431Z,13.10
2019-05-18T21:36:12.684Z,13.00
2019-05-18T21:41:18.418Z,13.00
2019-05-18T21:46:23.329Z,13.00
2019-05-18T21:51:28.335Z,13.00
2019-05-18T21:56:33.533Z,12.90
2019-05-18T22:01:38.662Z,12.70
2019-05-18T22:06:43.906Z,12.70
2019-05-18T22:11:48.634Z,12.70
2019-05-18T22:16:53.686Z,12.60
2019-05-18T22:21:58.783Z,12.60
2019-05-18T22:27:04.131Z,12.50
2019-05-18T22:32:09.262Z,12.40
2019-05-18T22:37:14.336Z,12.40
2019-05-18T22:42:19.513Z,12.50
2019-05-18T22:47:24.197Z,12.50
2019-05-18T22:52:29.828Z,12.50
2019-05-18T22:57:35.125Z,12.40
2019-05-18T23:02:40.063Z,12.40
2019-05-18T23:07:44.950Z,12.40
2019-05-18T23:12:49.501Z,12.40
2019-05-18T23:17:54.446Z,12.30
2019-05-18T23:22:58.911Z,12.30
2019-05-18T23:28:03.736Z,12.30
2019-05-18T23:33:08.736Z,12.30
2019-05-18T23:38:16.046Z,12.20
2019-05-18T23:43:20.685Z,12.20
2019-05-18T23:48:25.680Z,12.20
2019-05-18T23:53:30.525Z,12.10
2019-05-18T23:58:35.292Z,12.00
